Time;durP1;ratioP1;P1;durP2;ratioP2;P2;SDS_P1;SDS_P2;PMS_P1;PMS_P2;Temp;Humidity;BMP_temperature;BMP_pressure;BME280_temperature;BME280_humidity;BME280_pressure;Samples;Min_cycle;Max_cycle;Signal;HPM_P1;HPM_P2
2021/07/04 00:02:16;;;;;;;25.13;21.67;;;18.00;99.90;;;;;;4377811;32;20206;-61
2021/07/04 00:04:45;;;;;;;29.70;23.10;;;18.00;99.90;;;;;;4389470;32;20156;-61
2021/07/04 00:07:12;;;;;;;28.47;22.33;;;18.00;99.90;;;;;;4391801;32;20219;-62
2021/07/04 00:09:39;;;;;;;27.83;22.47;;;17.90;99.90;;;;;;4381121;32;20164;-62
2021/07/04 00:12:09;;;;;;;26.23;20.50;;;18.00;99.90;;;;;;4378130;32;20176;-60
2021/07/04 00:14:37;;;;;;;25.47;20.70;;;18.00;99.90;;;;;;4378226;32;20184;-61
2021/07/04 00:17:04;;;;;;;27.03;21.90;;;18.00;99.90;;;;;;4377515;32;20179;-62
2021/07/04 00:19:30;;;;;;;25.07;20.30;;;18.10;99.90;;;;;;4377374;32;20238;-61
2021/07/04 00:21:59;;;;;;;25.43;20.07;;;18.10;99.90;;;;;;4377978;32;20176;-61
2021/07/04 00:24:25;;;;;;;26.30;22.10;;;18.10;99.90;;;;;;4378012;32;20165;-62
2021/07/04 00:26:52;;;;;;;26.20;21.67;;;18.10;99.90;;;;;;4380176;32;20652;-61
2021/07/04 00:29:19;;;;;;;26.03;22.20;;;18.10;99.90;;;;;;4392158;32;20329;-61
2021/07/04 00:31:48;;;;;;;25.57;21.60;;;18.10;99.90;;;;;;4390156;32;20194;-61
2021/07/04 00:34:14;;;;;;;25.77;22.07;;;18.10;99.90;;;;;;4378088;32;20184;-61
2021/07/04 00:36:41;;;;;;;26.83;22.10;;;18.00;99.90;;;;;;4377488;32;20153;-62
2021/07/04 00:39:09;;;;;;;24.00;21.50;;;18.10;99.90;;;;;;4377145;32;20202;-61
2021/07/04 00:41:36;;;;;;;26.80;21.03;;;18.00;99.90;;;;;;4388927;32;20207;-61
2021/07/04 00:44:04;;;;;;;24.83;21.77;;;18.00;99.90;;;;;;4383539;32;20168;-62
2021/07/04 00:46:31;;;;;;;21.60;19.40;;;18.00;99.90;;;;;;4376846;32;20201;-62
2021/07/04 00:48:58;;;;;;;23.77;21.13;;;18.00;99.90;;;;;;4377546;32;20160;-61
2021/07/04 00:51:27;;;;;;;23.60;20.77;;;17.90;99.90;;;;;;4377296;32;20172;-62
2021/07/04 00:53:54;;;;;;;25.57;20.40;;;17.90;99.90;;;;;;4377479;32;20148;-61
2021/07/04 00:56:22;;;;;;;24.03;21.37;;;17.90;99.90;;;;;;4385234;32;20156;-62
2021/07/04 00:58:49;;;;;;;22.27;19.90;;;17.90;99.90;;;;;;4388847;32;20216;-61
2021/07/04 01:01:16;;;;;;;24.53;19.33;;;17.80;99.90;;;;;;4377089;32;20615;-61
2021/07/04 01:03:43;;;;;;;24.50;20.13;;;17.90;99.90;;;;;;4380356;32;20172;-61
2021/07/04 01:06:10;;;;;;;23.50;19.60;;;17.80;99.90;;;;;;4377092;32;20568;-62
2021/07/04 01:08:37;;;;;;;21.53;19.23;;;17.90;99.90;;;;;;4382681;32;20218;-61
2021/07/04 01:11:04;;;;;;;24.93;21.17;;;17.80;99.90;;;;;;4392573;32;20156;-62
2021/07/04 01:13:32;;;;;;;22.87;20.30;;;17.80;99.90;;;;;;4390213;32;20177;-63
2021/07/04 01:16:00;;;;;;;22.50;20.03;;;17.70;99.90;;;;;;4391969;32;20178;-61
2021/07/04 01:18:29;;;;;;;24.80;22.20;;;17.80;99.90;;;;;;4387875;32;20194;-61
2021/07/04 01:21:02;;;;;;;24.03;21.43;;;17.70;99.90;;;;;;4377063;32;20156;-61
2021/07/04 01:23:30;;;;;;;26.47;21.57;;;17.80;99.90;;;;;;4379840;32;20187;-61
2021/07/04 01:26:00;;;;;;;25.93;21.70;;;17.70;99.90;;;;;;4391680;32;20512;-62
2021/07/04 01:28:28;;;;;;;25.43;22.70;;;17.70;99.90;;;;;;4377422;32;20195;-63
2021/07/04 01:30:59;;;;;;;26.03;23.23;;;17.60;99.90;;;;;;4376533;32;20580;-60
2021/07/04 01:33:27;;;;;;;27.27;23.73;;;17.60;99.90;;;;;;4388322;32;20152;-63
2021/07/04 01:35:54;;;;;;;31.27;26.20;;;17.60;99.90;;;;;;4391089;32;20155;-60
2021/07/04 01:38:21;;;;;;;29.43;25.60;;;17.60;99.90;;;;;;4379652;32;20156;-62
2021/07/04 01:40:50;;;;;;;27.30;23.70;;;17.60;99.90;;;;;;4377421;32;20164;-61
2021/07/04 01:43:16;;;;;;;27.17;22.93;;;17.70;99.90;;;;;;4376360;32;20206;-60
2021/07/04 01:45:43;;;;;;;27.60;24.70;;;17.70;99.90;;;;;;4390852;32;20174;-62
2021/07/04 01:48:14;;;;;;;28.63;25.50;;;17.70;99.90;;;;;;4380747;32;20179;-61
2021/07/04 01:50:44;;;;;;;30.90;26.77;;;17.60;99.90;;;;;;4375911;32;20545;-62
2021/07/04 01:53:14;;;;;;;29.80;25.37;;;17.70;99.90;;;;;;4386613;32;20208;-62
2021/07/04 01:55:41;;;;;;;27.83;24.93;;;17.60;99.90;;;;;;4391560;32;20166;-62
2021/07/04 01:58:09;;;;;;;27.67;24.70;;;17.70;99.90;;;;;;4390155;32;20600;-61
2021/07/04 02:00:37;;;;;;;28.57;25.00;;;17.70;99.90;;;;;;4391597;32;20163;-61
2021/07/04 02:03:06;;;;;;;28.90;25.80;;;17.70;99.90;;;;;;4389660;32;20175;-61
2021/07/04 02:05:33;;;;;;;30.57;26.47;;;17.70;99.90;;;;;;4386123;32;20186;-60
2021/07/04 02:08:00;;;;;;;26.97;24.13;;;17.70;99.90;;;;;;4377516;32;20179;-61
2021/07/04 02:10:29;;;;;;;26.27;23.57;;;17.70;99.90;;;;;;4388906;32;20215;-61
2021/07/04 02:12:56;;;;;;;27.23;24.33;;;17.70;99.90;;;;;;4390727;32;20148;-61
2021/07/04 02:15:28;;;;;;;27.30;24.10;;;17.70;99.90;;;;;;4387939;32;20152;-61
2021/07/04 02:17:55;;;;;;;28.57;25.10;;;17.70;99.90;;;;;;4376855;32;20212;-62
2021/07/04 02:20:32;;;;;;;25.93;23.13;;;17.70;99.90;;;;;;4378062;32;20216;-61
2021/07/04 02:22:59;;;;;;;31.13;24.93;;;17.80;99.90;;;;;;4375683;32;20216;-62
2021/07/04 02:25:28;;;;;;;27.57;24.27;;;17.80;99.90;;;;;;4375384;32;20310;-62
2021/07/04 02:27:57;;;;;;;28.17;23.43;;;17.80;99.90;;;;;;4375623;32;20144;-61
2021/07/04 02:30:28;;;;;;;25.33;21.80;;;17.80;99.90;;;;;;4377101;32;20148;-61
2021/07/04 02:32:56;;;;;;;25.43;22.70;;;17.80;99.90;;;;;;4382607;32;20626;-60
2021/07/04 02:35:24;;;;;;;25.33;22.73;;;17.80;99.90;;;;;;4328132;32;1658246;-60
2021/07/04 02:37:50;;;;;;;29.07;21.37;;;17.80;99.90;;;;;;4390394;32;20215;-60
2021/07/04 02:40:17;;;;;;;26.47;23.67;;;17.90;99.90;;;;;;4388310;32;20223;-61
2021/07/04 02:42:47;;;;;;;24.93;22.03;;;17.90;99.90;;;;;;4381958;32;20152;-61
2021/07/04 02:45:20;;;;;;;24.93;22.20;;;17.90;99.90;;;;;;4380752;32;20241;-60
2021/07/04 02:47:51;;;;;;;26.70;22.50;;;17.90;99.90;;;;;;4373686;32;20232;-60
2021/07/04 02:50:21;;;;;;;28.17;23.30;;;17.80;99.90;;;;;;4374601;32;20526;-59
2021/07/04 02:53:01;;;;;;;26.43;23.47;;;17.80;99.90;;;;;;4375346;32;20187;-59
2021/07/04 02:55:31;;;;;;;26.37;22.50;;;17.80;99.90;;;;;;4369660;32;20663;-59
2021/07/04 02:58:00;;;;;;;25.43;22.63;;;17.80;99.90;;;;;;4379713;32;20614;-59
2021/07/04 03:00:28;;;;;;;24.70;22.03;;;17.80;99.90;;;;;;4392542;32;20160;-61
2021/07/04 03:03:00;;;;;;;25.77;22.97;;;17.80;99.90;;;;;;4395173;32;20159;-59
2021/07/04 03:05:26;;;;;;;24.17;21.57;;;17.80;99.90;;;;;;4382166;32;20567;-60
2021/07/04 03:07:54;;;;;;;27.63;23.33;;;17.80;99.90;;;;;;4380163;32;20235;-63
2021/07/04 03:10:22;;;;;;;25.20;22.50;;;17.80;99.90;;;;;;4390819;32;20148;-59
2021/07/04 03:12:49;;;;;;;31.00;24.67;;;17.80;99.90;;;;;;4394265;32;20486;-60
2021/07/04 03:15:18;;;;;;;27.47;23.77;;;17.80;99.90;;;;;;4394707;32;20174;-61
2021/07/04 03:17:45;;;;;;;28.60;25.40;;;17.90;99.90;;;;;;4394860;32;20172;-60
2021/07/04 03:20:15;;;;;;;27.87;23.83;;;17.80;99.90;;;;;;4388041;32;20610;-60
2021/07/04 03:22:42;;;;;;;28.43;25.43;;;17.80;99.90;;;;;;4394610;32;20179;-62
2021/07/04 03:25:10;;;;;;;27.20;24.23;;;17.80;99.90;;;;;;4394039;32;20599;-60
2021/07/04 03:27:38;;;;;;;28.83;24.80;;;17.80;99.90;;;;;;4392410;32;20223;-60
2021/07/04 03:30:06;;;;;;;30.93;25.53;;;17.80;99.90;;;;;;4379929;32;20159;-61
2021/07/04 03:32:33;;;;;;;36.43;27.47;;;17.80;99.90;;;;;;4382505;32;20163;-61
2021/07/04 03:35:00;;;;;;;44.10;32.33;;;17.80;99.90;;;;;;4394978;32;20225;-60
2021/07/04 03:37:30;;;;;;;37.33;29.63;;;17.80;99.90;;;;;;4395460;32;20195;-61
2021/07/04 03:39:57;;;;;;;51.57;37.50;;;17.80;99.90;;;;;;4394949;32;20202;-60
2021/07/04 03:42:24;;;;;;;54.17;36.13;;;17.80;99.90;;;;;;4393857;32;20603;-61
2021/07/04 03:44:51;;;;;;;49.90;35.43;;;17.80;99.90;;;;;;4381773;32;20152;-61
2021/07/04 03:47:19;;;;;;;48.07;35.37;;;17.80;99.90;;;;;;4386257;32;20174;-60
2021/07/04 03:49:45;;;;;;;44.90;33.10;;;17.80;99.90;;;;;;4380770;32;20168;-61
2021/07/04 03:52:12;;;;;;;41.33;31.87;;;17.90;99.90;;;;;;4380735;32;20224;-62
2021/07/04 03:54:40;;;;;;;41.07;31.87;;;17.90;99.90;;;;;;4393345;32;20178;-61
2021/07/04 04:00:09;;;;;;;51.67;34.77;;;18.00;99.90;;;;;;4391700;32;1827765;-60
2021/07/04 04:02:36;;;;;;;39.43;29.83;;;18.00;99.90;;;;;;4438589;32;20193;-60
2021/07/04 04:05:03;;;;;;;43.07;32.83;;;18.00;99.90;;;;;;4433853;32;20566;-60
2021/07/04 04:07:30;;;;;;;49.53;35.57;;;17.90;99.90;;;;;;4434334;32;20163;-60
2021/07/04 04:09:57;;;;;;;49.77;35.50;;;17.90;99.90;;;;;;4435462;32;20143;-59
2021/07/04 04:12:24;;;;;;;45.23;34.10;;;17.90;99.90;;;;;;4447170;32;20151;-61
2021/07/04 04:14:51;;;;;;;50.40;35.67;;;17.90;99.90;;;;;;4449450;32;20146;-61
2021/07/04 04:17:20;;;;;;;52.40;36.37;;;17.90;99.90;;;;;;4447639;32;20234;-61
2021/07/04 04:19:46;;;;;;;57.57;41.30;;;18.00;99.90;;;;;;4444134;32;20189;-60
2021/07/04 04:22:13;;;;;;;53.87;37.83;;;18.00;99.90;;;;;;4449362;32;20212;-61
2021/07/04 04:24:41;;;;;;;54.47;39.83;;;18.00;99.90;;;;;;4447655;32;20177;-62
2021/07/04 04:27:07;;;;;;;61.93;43.33;;;18.10;99.90;;;;;;4448928;32;20171;-62
2021/07/04 04:29:34;;;;;;;72.63;48.60;;;18.10;99.90;;;;;;4445189;32;20175;-60
2021/07/04 04:32:01;;;;;;;71.30;46.93;;;18.00;99.90;;;;;;4432935;32;20233;-61
2021/07/04 04:34:30;;;;;;;76.60;49.40;;;18.00;99.90;;;;;;4433901;32;20218;-62
2021/07/04 04:36:56;;;;;;;75.23;48.73;;;17.90;99.90;;;;;;4433535;32;20175;-60
2021/07/04 04:39:23;;;;;;;87.73;54.50;;;18.00;99.90;;;;;;4445682;32;20155;-62
2021/07/04 04:41:52;;;;;;;77.53;49.57;;;18.10;99.90;;;;;;4449012;32;20177;-61
2021/07/04 04:44:19;;;;;;;82.43;52.80;;;18.10;99.90;;;;;;4437717;32;20218;-62
2021/07/04 04:46:46;;;;;;;79.00;50.60;;;18.10;99.90;;;;;;4439439;32;20268;-62
2021/07/04 04:49:13;;;;;;;82.27;51.30;;;18.20;99.90;;;;;;4434007;32;20169;-61
2021/07/04 04:51:42;;;;;;;80.47;49.50;;;18.20;99.90;;;;;;4438112;32;20151;-60
2021/07/04 04:54:09;;;;;;;77.27;50.57;;;18.20;99.90;;;;;;4448360;32;20173;-61
2021/07/04 04:56:36;;;;;;;82.40;53.00;;;18.30;99.90;;;;;;4444716;32;20215;-61
2021/07/04 04:59:04;;;;;;;80.23;51.40;;;18.30;99.90;;;;;;4435628;32;20628;-62
2021/07/04 05:01:31;;;;;;;78.60;51.27;;;18.50;99.90;;;;;;4443629;32;20220;-61
2021/07/04 05:03:58;;;;;;;73.57;48.93;;;18.50;99.90;;;;;;4448215;32;20608;-61
2021/07/04 05:06:25;;;;;;;73.27;49.20;;;18.60;99.90;;;;;;4443443;32;20246;-62
2021/07/04 05:09:05;;;;;;;73.33;48.47;;;18.70;99.90;;;;;;4433489;32;20265;-61
2021/07/04 05:11:43;;;;;;;;;;;;;;;;;;;;;
2021/07/04 05:14:17;;;;;;;68.20;47.37;;;19.20;99.90;;;;;;4419941;32;20267;-60
2021/07/04 05:16:45;;;;;;;71.23;47.43;;;19.40;99.90;;;;;;4422631;32;20258;-61
2021/07/04 05:19:22;;;;;;;63.40;43.63;;;19.70;99.90;;;;;;4427925;32;20234;-61
2021/07/04 05:21:49;;;;;;;64.03;44.47;;;19.90;99.90;;;;;;4438133;32;20460;-61
2021/07/04 05:24:17;;;;;;;61.30;43.90;;;20.20;99.90;;;;;;4435663;32;20178;-62
2021/07/04 05:26:44;;;;;;;66.47;47.67;;;20.50;99.90;;;;;;4422307;32;20194;-59
2021/07/04 05:29:16;;;;;;;60.67;42.70;;;20.60;99.90;;;;;;4422961;32;20151;-60
2021/07/04 05:31:43;;;;;;;61.13;44.03;;;20.70;99.90;;;;;;4422512;32;20160;-61
2021/07/04 05:34:10;;;;;;;60.50;45.00;;;20.80;99.90;;;;;;4423636;32;20163;-63
2021/07/04 05:36:36;;;;;;;63.47;43.87;;;20.70;99.90;;;;;;4429745;32;20219;-62
2021/07/04 05:39:03;;;;;;;60.23;43.53;;;20.60;99.90;;;;;;4437811;32;20202;-62
2021/07/04 05:41:32;;;;;;;58.40;44.20;;;20.40;99.90;;;;;;4437815;32;20147;-60
2021/07/04 05:43:59;;;;;;;62.63;44.47;;;20.30;99.90;;;;;;4437676;32;20151;-60
2021/07/04 05:46:28;;;;;;;60.87;42.87;;;20.20;99.90;;;;;;4424555;32;20167;-64
2021/07/04 05:48:56;;;;;;;62.57;45.93;;;20.20;99.90;;;;;;4431437;32;20194;-62
2021/07/04 05:51:25;;;;;;;57.97;42.03;;;20.10;99.90;;;;;;4437733;32;20154;-63
2021/07/04 05:53:52;;;;;;;52.33;40.73;;;20.00;99.90;;;;;;4437607;32;20171;-64
2021/07/04 05:56:18;;;;;;;51.50;38.80;;;20.00;99.90;;;;;;4437659;32;20207;-61
2021/07/04 05:58:47;;;;;;;59.63;40.37;;;20.00;99.90;;;;;;4430038;32;20515;-63
2021/07/04 06:01:15;;;;;;;54.93;39.37;;;20.00;99.90;;;;;;4427747;32;20198;-63
2021/07/04 06:03:42;;;;;;;56.00;40.97;;;20.00;99.90;;;;;;4429620;32;20174;-63
2021/07/04 06:06:09;;;;;;;57.47;40.80;;;20.00;99.90;;;;;;4430864;32;20163;-61
2021/07/04 06:08:36;;;;;;;56.57;41.30;;;20.00;99.90;;;;;;4430831;32;20178;-62
2021/07/04 06:11:03;;;;;;;54.83;38.93;;;20.00;99.90;;;;;;4428345;32;20575;-62
2021/07/04 06:13:29;;;;;;;52.03;39.53;;;20.00;99.90;;;;;;4429932;32;20178;-63
2021/07/04 06:16:00;;;;;;;55.53;38.53;;;20.10;99.90;;;;;;4430435;32;20595;-63
2021/07/04 06:18:28;;;;;;;51.90;38.43;;;20.20;99.90;;;;;;4428582;32;20207;-62
2021/07/04 06:20:55;;;;;;;48.10;37.10;;;20.30;99.90;;;;;;4428152;32;20162;-61
2021/07/04 06:23:22;;;;;;;50.43;37.97;;;20.40;99.90;;;;;;4432222;32;20602;-63
2021/07/04 06:25:49;;;;;;;52.87;38.40;;;20.60;99.90;;;;;;4429369;32;20186;-63
2021/07/04 06:28:16;;;;;;;55.90;37.17;;;20.90;99.90;;;;;;4430400;32;20186;-63
2021/07/04 06:30:43;;;;;;;51.13;35.83;;;21.10;99.90;;;;;;4426540;32;20174;-62
2021/07/04 06:33:11;;;;;;;49.30;36.97;;;21.20;99.90;;;;;;4427480;32;20186;-61
2021/07/04 06:35:39;;;;;;;50.53;38.07;;;21.40;99.90;;;;;;4430282;32;20282;-62
2021/07/04 06:38:06;;;;;;;48.23;34.63;;;21.60;99.90;;;;;;4428094;32;20174;-61
2021/07/04 06:40:33;;;;;;;45.83;33.57;;;21.60;99.90;;;;;;4425069;32;20609;-63
2021/07/04 06:43:00;;;;;;;45.40;35.03;;;21.50;99.90;;;;;;4424457;32;20181;-62
2021/07/04 06:45:27;;;;;;;44.03;31.97;;;21.70;99.90;;;;;;4428663;32;20179;-62
2021/07/04 06:47:53;;;;;;;40.13;32.40;;;22.20;99.90;;;;;;4432138;32;20255;-63
2021/07/04 06:50:22;;;;;;;39.70;31.33;;;22.50;99.90;;;;;;4428871;32;20246;-61
2021/07/04 06:52:49;;;;;;;35.70;29.53;;;22.60;99.90;;;;;;4426318;32;20245;-61
2021/07/04 06:55:17;;;;;;;33.60;27.53;;;22.70;99.90;;;;;;4431216;32;20159;-62
2021/07/04 06:57:44;;;;;;;38.07;28.63;;;22.80;99.90;;;;;;4431218;32;20174;-62
2021/07/04 07:00:16;;;;;;;34.37;27.43;;;22.80;99.90;;;;;;4431002;32;20174;-61
2021/07/04 07:02:43;;;;;;;31.03;24.43;;;22.60;99.90;;;;;;4430928;32;20680;-61
2021/07/04 07:05:12;;;;;;;31.37;25.57;;;22.20;99.90;;;;;;4424305;32;20179;-60
2021/07/04 07:07:41;;;;;;;36.57;27.57;;;22.10;99.90;;;;;;4429713;32;20214;-61
2021/07/04 07:10:10;;;;;;;30.83;25.97;;;22.30;99.90;;;;;;4431349;32;20206;-61
2021/07/04 07:12:38;;;;;;;30.13;25.47;;;22.50;99.90;;;;;;4429277;32;20618;-60
2021/07/04 07:15:06;;;;;;;29.20;24.33;;;22.60;99.90;;;;;;4424193;32;20247;-63
2021/07/04 07:17:33;;;;;;;28.70;23.47;;;22.70;99.90;;;;;;4431401;32;20206;-62
2021/07/04 07:20:00;;;;;;;28.23;23.43;;;22.70;99.90;;;;;;4425486;32;20230;-62
2021/07/04 07:22:30;;;;;;;27.47;22.30;;;22.80;99.90;;;;;;4428576;32;20163;-61
2021/07/04 07:24:58;;;;;;;28.93;24.07;;;22.90;99.90;;;;;;4431561;32;20189;-62
2021/07/04 07:27:25;;;;;;;24.77;22.07;;;23.30;99.90;;;;;;4431340;32;20194;-61
2021/07/04 07:29:52;;;;;;;24.50;21.73;;;23.80;99.90;;;;;;4429970;32;20208;-62
2021/07/04 07:32:19;;;;;;;24.40;21.03;;;24.30;99.90;;;;;;4428310;32;20245;-62
2021/07/04 07:34:45;;;;;;;20.63;17.87;;;24.60;99.90;;;;;;4423551;32;20552;-63
2021/07/04 07:37:14;;;;;;;17.83;15.90;;;25.10;99.90;;;;;;4424791;32;20626;-61
2021/07/04 07:39:41;;;;;;;21.10;17.40;;;25.20;99.90;;;;;;4429947;32;20181;-62
2021/07/04 07:42:09;;;;;;;22.48;18.80;;;24.90;99.90;;;;;;4429709;32;20630;-62
2021/07/04 07:44:36;;;;;;;24.80;19.17;;;24.70;99.90;;;;;;4431809;32;20214;-62
2021/07/04 07:47:03;;;;;;;18.80;16.77;;;24.90;99.90;;;;;;4424820;32;20178;-63
2021/07/04 07:49:30;;;;;;;20.70;18.27;;;25.00;99.90;;;;;;4432472;32;20599;-64
2021/07/04 07:51:59;;;;;;;22.58;18.95;;;25.00;99.90;;;;;;4430486;32;20185;-62
2021/07/04 07:54:26;;;;;;;20.20;16.65;;;25.10;99.90;;;;;;4429424;32;20258;-63
2021/07/04 07:56:53;;;;;;;18.73;15.83;;;25.10;99.90;;;;;;4428837;32;20183;-63
2021/07/04 07:59:21;;;;;;;18.67;14.17;;;25.10;99.90;;;;;;4426553;32;20190;-63
2021/07/04 08:01:48;;;;;;;15.90;14.00;;;25.40;99.90;;;;;;4429130;32;20181;-63
2021/07/04 08:04:16;;;;;;;15.55;13.95;;;25.70;99.90;;;;;;4428025;32;20231;-62
2021/07/04 08:06:42;;;;;;;13.48;11.35;;;26.00;99.90;;;;;;4429468;32;20174;-61
2021/07/04 08:09:10;;;;;;;10.40;9.15;;;26.90;99.90;;;;;;4430151;32;20590;-61
2021/07/04 08:11:37;;;;;;;10.13;8.82;;;31.10;96.30;;;;;;4429687;32;20177;-63
2021/07/04 08:14:04;;;;;;;8.48;7.60;;;37.90;80.90;;;;;;4427505;32;20583;-61
2021/07/04 08:16:32;;;;;;;6.25;5.50;;;42.20;58.40;;;;;;4424912;32;20185;-64
2021/07/04 08:18:59;;;;;;;8.13;7.20;;;42.30;52.20;;;;;;4428455;32;20691;-63
2021/07/04 08:21:28;;;;;;;7.75;6.50;;;40.60;50.10;;;;;;4429318;32;20193;-62
2021/07/04 08:23:54;;;;;;;5.18;4.25;;;39.60;51.40;;;;;;4427562;32;20163;-63
2021/07/04 08:26:22;;;;;;;5.18;4.68;;;41.10;50.00;;;;;;4429827;32;20466;-61
2021/07/04 08:28:49;;;;;;;5.93;5.37;;;42.50;47.90;;;;;;4428571;32;20162;-62
2021/07/04 08:31:16;;;;;;;5.65;5.15;;;44.30;46.30;;;;;;4428896;32;20218;-63
2021/07/04 08:33:44;;;;;;;5.18;4.68;;;46.70;43.80;;;;;;4431909;32;20151;-62
2021/07/04 08:36:11;;;;;;;6.65;5.95;;;48.60;41.30;;;;;;4426899;32;20156;-60
2021/07/04 08:38:38;;;;;;;5.18;4.60;;;50.20;38.20;;;;;;4426167;32;20193;-62
2021/07/04 08:41:05;;;;;;;4.90;4.50;;;51.20;38.30;;;;;;4426590;32;20234;-63
2021/07/04 08:43:34;;;;;;;5.90;4.43;;;51.80;37.00;;;;;;4425029;32;20509;-61
2021/07/04 08:46:04;;;;;;;6.47;5.10;;;50.30;37.20;;;;;;4429247;32;20616;-63
2021/07/04 08:48:34;;;;;;;5.03;4.53;;;51.30;36.40;;;;;;4428710;32;20157;-62
2021/07/04 08:51:02;;;;;;;5.57;4.45;;;53.30;35.60;;;;;;4428740;32;20212;-64
2021/07/04 08:53:30;;;;;;;5.57;5.07;;;54.90;34.50;;;;;;4427904;32;20152;-63
2021/07/04 08:55:57;;;;;;;5.87;5.37;;;54.70;32.80;;;;;;4425967;32;20232;-62
2021/07/04 08:58:26;;;;;;;4.87;3.80;;;55.20;32.80;;;;;;4436665;32;20159;-64
2021/07/04 09:01:09;;;;;;;4.45;4.05;;;53.50;32.60;;;;;;4427124;32;20188;-64
2021/07/04 09:03:36;;;;;;;4.60;4.00;;;48.90;34.40;;;;;;4431101;32;20234;-64
2021/07/04 09:06:05;;;;;;;6.25;5.68;;;45.90;37.10;;;;;;4429801;32;20162;-61
2021/07/04 09:08:32;;;;;;;5.22;4.72;;;44.20;38.80;;;;;;4428505;32;20293;-63
2021/07/04 09:11:15;;;;;;;5.40;4.90;;;44.10;38.50;;;;;;4430679;32;20644;-62
2021/07/04 09:13:43;;;;;;;4.80;4.35;;;43.80;38.60;;;;;;4429095;32;20554;-61
2021/07/04 09:16:12;;;;;;;5.55;5.05;;;43.90;39.60;;;;;;4431605;32;20171;-63
2021/07/04 09:18:39;;;;;;;4.68;4.28;;;45.90;38.20;;;;;;4429821;32;20139;-61
2021/07/04 09:21:24;;;;;;;5.47;4.43;;;45.70;36.70;;;;;;4430466;32;20213;-61
2021/07/04 09:23:51;;;;;;;4.22;3.85;;;44.70;38.60;;;;;;4428556;32;20174;-64
2021/07/04 09:26:41;;;;;;;4.75;4.35;;;45.00;38.80;;;;;;4427948;32;20167;-62
2021/07/04 09:29:10;;;;;;;5.10;4.60;;;45.40;37.60;;;;;;4429460;32;20236;-62
2021/07/04 09:31:39;;;;;;;5.85;4.87;;;42.80;38.60;;;;;;4433762;32;20186;-62
2021/07/04 09:34:08;;;;;;;5.55;5.05;;;39.40;42.20;;;;;;4429987;32;20219;-62
2021/07/04 09:36:36;;;;;;;5.95;5.05;;;36.40;45.70;;;;;;4429172;32;20143;-62
2021/07/04 09:39:17;;;;;;;5.55;5.05;;;36.90;46.20;;;;;;4430937;32;20510;-62
2021/07/04 09:42:05;;;;;;;6.57;4.50;;;36.70;46.20;;;;;;4430916;32;20242;-62
2021/07/04 09:44:31;;;;;;;8.80;6.68;;;36.50;47.50;;;;;;4431922;32;20170;-62
2021/07/04 09:47:16;;;;;;;5.80;5.30;;;37.50;44.80;;;;;;4429635;32;20152;-63
2021/07/04 09:49:44;;;;;;;8.07;7.28;;;35.70;47.00;;;;;;4425467;32;20172;-64
2021/07/04 09:52:18;;;;;;;6.40;5.80;;;34.20;50.30;;;;;;4432963;32;20151;-63
2021/07/04 09:54:59;;;;;;;11.63;5.50;;;35.70;48.20;;;;;;4434175;32;20222;-63
2021/07/04 09:57:27;;;;;;;8.15;7.12;;;35.60;48.30;;;;;;4426312;32;20140;-61
2021/07/04 10:00:14;;;;;;;6.97;6.20;;;33.70;49.30;;;;;;4429664;32;20159;-62
2021/07/04 10:02:41;;;;;;;6.35;5.50;;;31.90;52.80;;;;;;4428922;32;20159;-64
2021/07/04 10:05:16;;;;;;;6.20;5.55;;;30.70;56.30;;;;;;4429483;32;20148;-63
2021/07/04 10:07:44;;;;;;;6.10;5.00;;;29.60;57.10;;;;;;4428068;32;20158;-63
2021/07/04 10:10:12;;;;;;;5.18;4.72;;;28.80;59.40;;;;;;4432369;32;20466;-62
2021/07/04 10:12:39;;;;;;;4.87;4.07;;;28.50;60.60;;;;;;4432265;32;20417;-62
2021/07/04 10:15:07;;;;;;;4.93;4.53;;;28.30;62.90;;;;;;4422954;32;20148;-64
2021/07/04 10:17:38;;;;;;;4.18;3.85;;;28.20;66.40;;;;;;4426409;32;20148;-62
2021/07/04 10:20:06;;;;;;;3.78;3.47;;;28.40;68.30;;;;;;4425720;32;20148;-62
2021/07/04 10:22:37;;;;;;;3.65;3.12;;;28.70;65.00;;;;;;4432011;32;20501;-62
2021/07/04 10:25:08;;;;;;;3.80;3.50;;;28.80;66.90;;;;;;4431697;32;20147;-61
2021/07/04 10:27:39;;;;;;;5.20;3.90;;;28.90;66.70;;;;;;4428177;32;20166;-62
2021/07/04 10:30:07;;;;;;;4.62;3.67;;;29.10;68.50;;;;;;4426471;32;20601;-62
2021/07/04 10:32:34;;;;;;;3.80;3.50;;;29.20;66.30;;;;;;4427156;32;20299;-64
2021/07/04 10:35:08;;;;;;;3.97;3.60;;;28.70;68.00;;;;;;4431078;32;20160;-62
2021/07/04 10:37:37;;;;;;;4.40;4.00;;;28.40;68.10;;;;;;4423155;32;20163;-61
2021/07/04 10:40:15;;;;;;;3.97;3.67;;;28.40;70.50;;;;;;4433361;32;20186;-62
2021/07/04 10:42:42;;;;;;;4.40;3.78;;;28.10;68.80;;;;;;4431973;32;20216;-63
2021/07/04 10:45:32;;;;;;;4.30;3.90;;;28.30;70.20;;;;;;4434701;32;20174;-62
2021/07/04 10:48:16;;;;;;;3.55;3.25;;;28.10;71.00;;;;;;4436415;32;20143;-62
2021/07/04 10:51:04;;;;;;;4.50;4.10;;;28.10;72.00;;;;;;4431611;32;20144;-62
2021/07/04 10:53:45;;;;;;;4.45;3.45;;;28.30;71.10;;;;;;4433639;32;20173;-62
2021/07/04 10:56:43;;;;;;;3.90;3.50;;;28.60;71.40;;;;;;4436555;32;20190;-63
2021/07/04 10:59:12;;;;;;;4.72;4.12;;;28.40;71.10;;;;;;4424292;32;20171;-63
2021/07/04 11:01:56;;;;;;;5.12;3.70;;;28.50;71.80;;;;;;4429618;32;20174;-63
2021/07/04 11:04:53;;;;;;;4.93;3.45;;;28.30;73.10;;;;;;4430879;32;20131;-62
2021/07/04 11:07:20;;;;;;;3.58;3.30;;;28.10;73.90;;;;;;4436365;32;20131;-62
2021/07/04 11:10:16;;;;;;;4.35;3.95;;;28.10;74.90;;;;;;4430472;32;20166;-63
2021/07/04 11:12:45;;;;;;;4.07;3.12;;;27.90;72.30;;;;;;4431742;32;20201;-62
2021/07/04 11:15:31;;;;;;;5.22;3.53;;;27.90;75.30;;;;;;4437685;32;20171;-61
2021/07/04 11:18:06;;;;;;;4.37;3.55;;;27.90;75.40;;;;;;4429916;32;20174;-61
2021/07/04 11:20:34;;;;;;;4.22;3.35;;;27.90;74.60;;;;;;4420906;32;20577;-61
2021/07/04 11:23:03;;;;;;;3.60;3.30;;;28.00;74.10;;;;;;4427412;32;20162;-61
2021/07/04 11:25:41;;;;;;;3.37;2.90;;;28.00;75.80;;;;;;4431988;32;20173;-62
2021/07/04 11:28:24;;;;;;;4.70;3.40;;;28.10;76.00;;;;;;4435384;32;20151;-62
2021/07/04 11:30:52;;;;;;;3.95;3.60;;;27.70;74.40;;;;;;4435156;32;20202;-61
2021/07/04 11:33:33;;;;;;;3.80;3.50;;;27.60;78.00;;;;;;4433473;32;20225;-62
2021/07/04 11:36:03;;;;;;;3.55;3.25;;;27.40;75.70;;;;;;4436206;32;20139;-63
2021/07/04 11:38:32;;;;;;;5.03;3.90;;;27.20;77.70;;;;;;4434972;32;20173;-61
2021/07/04 11:40:59;;;;;;;3.65;3.33;;;26.80;79.20;;;;;;4435872;32;20151;-61
2021/07/04 11:43:29;;;;;;;4.50;3.97;;;26.50;81.70;;;;;;4426753;32;20166;-61
2021/07/04 11:45:58;;;;;;;3.80;3.50;;;26.10;80.70;;;;;;4433828;32;20166;-61
2021/07/04 11:48:47;;;;;;;4.10;3.70;;;25.90;85.50;;;;;;4436864;32;20169;-62
2021/07/04 11:51:27;;;;;;;4.12;3.75;;;25.50;87.60;;;;;;4434787;32;20211;-63
2021/07/04 11:53:56;;;;;;;4.32;3.92;;;25.30;90.20;;;;;;4432312;32;20143;-62
2021/07/04 11:56:23;;;;;;;4.82;3.67;;;25.10;91.90;;;;;;4421636;32;20147;-62
2021/07/04 11:58:52;;;;;;;3.40;3.05;;;25.10;93.30;;;;;;4433853;32;20182;-61
2021/07/04 12:01:20;;;;;;;3.83;3.53;;;25.10;93.30;;;;;;4435292;32;20198;-61
2021/07/04 12:03:52;;;;;;;4.68;3.92;;;25.20;93.30;;;;;;4427413;32;20219;-61
2021/07/04 12:06:25;;;;;;;5.05;3.50;;;25.30;94.20;;;;;;4428108;32;20165;-63
2021/07/04 12:08:54;;;;;;;4.43;3.37;;;25.40;95.80;;;;;;4424599;32;20645;-62
2021/07/04 12:11:50;;;;;;;4.37;3.67;;;25.80;95.90;;;;;;4428698;32;20155;-63
2021/07/04 12:14:42;;;;;;;3.78;3.40;;;26.50;93.80;;;;;;4424537;32;20206;-63
2021/07/04 12:17:36;;;;;;;3.65;2.97;;;27.20;92.30;;;;;;4428632;32;20186;-62
2021/07/04 12:20:11;;;;;;;3.45;3.15;;;27.70;92.10;;;;;;4360039;32;20281;-62
2021/07/04 12:22:40;;;;;;;4.30;3.62;;;28.20;90.80;;;;;;4363177;32;20215;-62
2021/07/04 12:25:15;;;;;;;4.75;3.60;;;28.20;88.60;;;;;;4361205;32;20238;-63
2021/07/04 12:27:44;;;;;;;4.20;3.58;;;28.10;88.20;;;;;;4370734;32;20523;-62
2021/07/04 12:30:16;;;;;;;3.45;3.15;;;28.10;88.40;;;;;;4373884;32;20604;-63
2021/07/04 12:32:46;;;;;;;3.40;3.10;;;27.90;88.60;;;;;;4374541;32;20195;-62
2021/07/04 12:35:22;;;;;;;5.53;3.53;;;27.80;90.10;;;;;;4373198;32;20172;-63
2021/07/04 12:37:50;;;;;;;4.25;3.72;;;27.90;89.30;;;;;;4376197;32;20187;-62
2021/07/04 12:40:19;;;;;;;4.05;3.75;;;27.80;89.90;;;;;;4374138;32;20168;-61
2021/07/04 12:42:46;;;;;;;5.12;4.37;;;28.00;87.30;;;;;;4375314;32;20160;-62
2021/07/04 12:45:16;;;;;;;5.10;4.70;;;27.90;86.70;;;;;;4371741;32;20195;-62
2021/07/04 12:47:44;;;;;;;3.60;3.30;;;27.60;87.50;;;;;;4375709;32;20156;-62
2021/07/04 12:50:14;;;;;;;3.55;3.25;;;27.30;89.10;;;;;;4375764;32;20164;-62
2021/07/04 12:52:54;;;;;;;5.68;4.18;;;27.20;89.50;;;;;;4374407;32;20192;-62